Time;durP1;ratioP1;P1;durP2;ratioP2;P2;SDS_P1;SDS_P2;PMS_P1;PMS_P2;Temp;Humidity;BMP_temperature;BMP_pressure;BME280_temperature;BME280_humidity;BME280_pressure;Samples;Min_cycle;Max_cycle;Signal;HPM_P1;HPM_P2
2022/01/11 04:51:06;;;;;;;;;;;;;;;1.14;76.88;97661.28;4199430;27;10503;-64
2022/01/11 04:53:08;;;;;;;;;;;;;;;0.99;77.14;97667.59;4198490;28;5716;-64
2022/01/11 04:55:10;;;;;;;;;;;;;;;1.10;77.03;97654.63;4187828;28;5738;-64
2022/01/11 04:57:17;;;;;;;;;;;;;;;0.79;77.59;97665.63;4193401;28;5704;-64
2022/01/11 04:59:19;;;;;;;;;;;;;;;0.96;77.15;97664.41;4187323;28;5781;-65
2022/01/11 05:01:21;;;;;;;;;;;;;;;1.04;76.89;97665.50;4184365;28;6071;-64
2022/01/11 05:03:23;;;;;;;;;;;;;;;0.95;77.37;97660.97;4178591;28;5767;-64
2022/01/11 05:05:28;;;;;;;;;;;;;;;0.91;77.69;97666.50;4182790;28;5769;-64
2022/01/11 05:07:30;;;;;;;;;;;;;;;0.80;77.71;97668.13;4182629;28;5760;-65
2022/01/11 05:09:32;;;;;;;;;;;;;;;0.90;77.66;97676.06;4173086;28;5758;-65
2022/01/11 05:11:33;;;;;;;;;;;;;;;0.98;77.58;97667.72;4166272;28;5829;-65
2022/01/11 05:13:35;;;;;;;;;;;;;;;1.08;77.27;97671.31;4149128;28;5799;-65
2022/01/11 05:15:37;;;;;;;;;;;;;;;0.86;78.12;97672.03;4166699;28;6426;-64
2022/01/11 05:17:40;;;;;;;;;;;;;;;0.97;77.24;97677.31;4166116;28;5755;-64
2022/01/11 05:19:42;;;;;;;;;;;;;;;0.93;76.97;97673.28;4166108;28;5790;-64
2022/01/11 05:21:44;;;;;;;;;;;;;;;0.94;77.48;97679.31;4175799;28;5818;-64
2022/01/11 05:23:45;;;;;;;;;;;;;;;1.05;76.98;97680.19;4182696;28;5755;-64
2022/01/11 05:25:47;;;;;;;;;;;;;;;1.09;76.57;97680.78;4197932;28;5647;-64
2022/01/11 05:27:48;;;;;;;;;;;;;;;0.97;77.15;97690.31;4182602;28;5033;-65
2022/01/11 05:29:50;;;;;;;;;;;;;;;0.99;77.26;97687.59;4182286;28;7748;-64
2022/01/11 05:31:52;;;;;;;;;;;;;;;1.10;76.55;97693.69;4182413;28;5841;-64
2022/01/11 05:33:53;;;;;;;;;;;;;;;0.94;77.07;97684.50;4182250;28;5800;-64
2022/01/11 05:35:55;;;;;;;;;;;;;;;0.97;76.74;97692.94;4163013;28;5802;-65
2022/01/11 05:37:57;;;;;;;;;;;;;;;0.95;77.25;97680.97;4181541;28;5772;-65
2022/01/11 05:40:01;;;;;;;;;;;;;;;0.93;77.08;97694.09;4181354;28;5723;-65
2022/01/11 05:42:06;;;;;;;;;;;;;;;1.08;76.92;97695.56;4179227;28;5725;-65
2022/01/11 05:44:08;;;;;;;;;;;;;;;1.03;76.76;97689.88;4165988;28;5800;-65
2022/01/11 05:46:10;;;;;;;;;;;;;;;1.16;76.86;97700.22;4164909;28;5798;-65
2022/01/11 05:48:11;;;;;;;;;;;;;;;1.29;76.31;97692.34;4176226;28;5733;-65
2022/01/11 05:50:14;;;;;;;;;;;;;;;0.93;77.04;97694.09;4180366;28;5741;-65
2022/01/11 05:52:15;;;;;;;;;;;;;;;1.03;76.99;97700.31;4170065;28;5745;-65
2022/01/11 05:54:17;;;;;;;;;;;;;;;0.94;77.37;97700.97;4169094;28;5880;-65
2022/01/11 05:56:24;;;;;;;;;;;;;;;0.92;77.23;97704.63;4162766;28;5736;-64
2022/01/11 05:58:34;;;;;;;;;;;;;;;0.84;77.57;97699.97;4163146;28;5861;-64
2022/01/11 06:00:37;;;;;;;;;;;;;;;0.98;77.16;97707.59;4166422;28;5879;-65
2022/01/11 06:02:41;;;;;;;;;;;;;;;0.92;77.19;97712.44;4168324;28;5768;-64
2022/01/11 06:04:43;;;;;;;;;;;;;;;1.10;76.83;97711.09;4169366;28;5744;-64
2022/01/11 06:06:45;;;;;;;;;;;;;;;1.18;76.32;97708.75;4160908;28;6434;-65
2022/01/11 06:08:49;;;;;;;;;;;;;;;1.14;76.33;97708.16;4163764;28;5741;-65
2022/01/11 06:10:51;;;;;;;;;;;;;;;1.22;76.14;97719.78;4168141;28;5865;-65
2022/01/11 06:12:52;;;;;;;;;;;;;;;1.27;76.09;97720.28;4170969;28;5737;-65
2022/01/11 06:14:55;;;;;;;;;;;;;;;1.28;76.00;97714.13;4168501;28;5804;-65
2022/01/11 06:16:56;;;;;;;;;;;;;;;1.35;75.83;97728.34;4168324;28;5719;-65
2022/01/11 06:19:04;;;;;;;;;;;;;;;1.35;75.65;97726.56;4160205;28;5740;-65
2022/01/11 06:21:05;;;;;;;;;;;;;;;1.15;76.56;97729.84;4168426;28;5841;-65
2022/01/11 06:23:07;;;;;;;;;;;;;;;1.34;76.14;97731.91;4184337;23;5658;-65
2022/01/11 06:25:09;;;;;;;;;;;;;;;1.32;75.86;97731.19;4183210;28;6422;-65
2022/01/11 06:27:10;;;;;;;;;;;;;;;1.18;76.07;97729.59;4168433;28;5840;-65
2022/01/11 06:29:12;;;;;;;;;;;;;;;1.20;76.55;97732.09;4174553;28;6692;-64
2022/01/11 06:31:14;;;;;;;;;;;;;;;1.32;75.78;97731.19;4175464;28;6682;-65
2022/01/11 06:33:16;;;;;;;;;;;;;;;1.35;75.84;97730.94;4182610;28;5783;-65
2022/01/11 06:35:18;;;;;;;;;;;;;;;1.42;75.50;97732.19;4182599;28;5711;-64
2022/01/11 06:37:20;;;;;;;;;;;;;;;1.40;75.76;97737.50;4183270;28;5702;-65
2022/01/11 06:39:24;;;;;;;;;;;;;;;1.29;75.97;97737.47;4180971;28;5758;-65
2022/01/11 06:41:25;;;;;;;;;;;;;;;1.34;75.88;97737.13;4182893;28;5946;-64
2022/01/11 06:43:27;;;;;;;;;;;;;;;1.39;75.56;97742.84;4180159;28;5738;-65
2022/01/11 06:45:29;;;;;;;;;;;;;;;1.28;75.56;97742.78;4170658;28;5673;-65
2022/01/11 06:47:31;;;;;;;;;;;;;;;1.31;75.57;97746.00;4184439;28;5712;-65
2022/01/11 06:49:33;;;;;;;;;;;;;;;1.33;75.54;97751.09;4186945;28;6391;-65
2022/01/11 06:51:35;;;;;;;;;;;;;;;1.02;76.20;97753.31;4178708;28;5761;-67
2022/01/11 06:53:37;;;;;;;;;;;;;;;1.28;75.88;97750.59;4170045;28;5802;-67
2022/01/11 06:55:39;;;;;;;;;;;;;;;1.33;75.53;97761.50;4184405;28;5723;-67
2022/01/11 06:57:41;;;;;;;;;;;;;;;1.30;75.91;97749.53;4182139;28;5669;-67
2022/01/11 06:59:43;;;;;;;;;;;;;;;1.15;75.93;97755.88;4183234;28;5711;-67
2022/01/11 07:01:45;;;;;;;;;;;;;;;1.25;76.04;97761.25;4177964;28;5886;-67
2022/01/11 07:03:47;;;;;;;;;;;;;;;1.34;75.67;97769.19;4175742;28;5716;-67
2022/01/11 07:05:49;;;;;;;;;;;;;;;1.37;75.35;97757.75;4169296;28;5742;-67
2022/01/11 07:07:52;;;;;;;;;;;;;;;1.29;75.61;97770.50;4183134;28;5775;-67
2022/01/11 07:09:53;;;;;;;;;;;;;;;1.24;75.89;97768.22;4177696;28;5661;-66
2022/01/11 07:11:55;;;;;;;;;;;;;;;1.36;75.65;97771.69;4169598;28;5749;-67
2022/01/11 07:13:56;;;;;;;;;;;;;;;1.34;75.67;97771.81;4178614;28;5658;-67
2022/01/11 07:15:58;;;;;;;;;;;;;;;1.50;74.95;97771.53;4179085;28;5785;-67
2022/01/11 07:18:04;;;;;;;;;;;;;;;1.48;74.32;97778.66;4175212;28;5857;-67
2022/01/11 07:20:06;;;;;;;;;;;;;;;1.31;74.74;97779.03;4182851;28;5840;-67
2022/01/11 07:22:08;;;;;;;;;;;;;;;1.26;75.47;97773.34;4185097;28;5704;-67
2022/01/11 07:24:11;;;;;;;;;;;;;;;1.31;75.22;97769.44;4184505;28;5715;-67
2022/01/11 07:26:13;;;;;;;;;;;;;;;1.50;75.22;97770.72;4168715;28;5768;-67
2022/01/11 07:28:15;;;;;;;;;;;;;;;1.34;75.00;97776.19;4169470;28;5672;-67
2022/01/11 07:30:17;;;;;;;;;;;;;;;1.32;75.35;97778.09;4184319;28;5715;-67
2022/01/11 07:32:18;;;;;;;;;;;;;;;1.39;74.69;97774.94;4161008;28;5740;-67
2022/01/11 07:34:20;;;;;;;;;;;;;;;1.36;75.29;97775.16;4169604;28;5804;-67
2022/01/11 07:36:22;;;;;;;;;;;;;;;1.36;75.06;97784.72;4183410;28;5827;-67
2022/01/11 07:38:24;;;;;;;;;;;;;;;1.21;75.13;97784.06;4168635;28;5083;-67
2022/01/11 07:40:25;;;;;;;;;;;;;;;1.20;75.93;97784.19;4167763;28;5095;-68
2022/01/11 07:42:27;;;;;;;;;;;;;;;1.20;75.59;97789.38;4179851;28;5680;-68
2022/01/11 07:44:28;;;;;;;;;;;;;;;1.19;75.46;97787.72;4172081;28;5729;-68
2022/01/11 07:46:30;;;;;;;;;;;;;;;1.28;75.04;97790.50;4169517;28;5745;-68
2022/01/11 07:48:32;;;;;;;;;;;;;;;1.11;75.73;97791.72;4174752;28;5861;-67
2022/01/11 07:50:33;;;;;;;;;;;;;;;1.24;75.81;97793.44;4177817;28;5715;-68
2022/01/11 07:52:35;;;;;;;;;;;;;;;1.11;76.08;97806.50;4179943;28;5753;-66
2022/01/11 07:54:36;;;;;;;;;;;;;;;1.22;75.73;97800.53;4173695;28;5767;-66
2022/01/11 07:56:38;;;;;;;;;;;;;;;1.39;75.56;97808.81;4185592;28;5720;-67
2022/01/11 07:58:40;;;;;;;;;;;;;;;1.50;75.30;97807.19;4176264;28;5650;-67
2022/01/11 08:00:42;;;;;;;;;;;;;;;1.35;75.85;97811.72;4181274;28;5776;-67
2022/01/11 08:02:44;;;;;;;;;;;;;;;1.42;75.69;97812.94;4173231;28;5639;-66
2022/01/11 08:04:46;;;;;;;;;;;;;;;1.63;75.15;97814.00;4183807;28;5797;-66
2022/01/11 08:06:47;;;;;;;;;;;;;;;1.77;74.84;97815.56;4174687;28;6527;-66
2022/01/11 08:08:49;;;;;;;;;;;;;;;1.75;74.82;97823.53;4169073;28;5745;-66
2022/01/11 08:10:50;;;;;;;;;;;;;;;1.78;74.08;97813.81;4177373;28;5735;-66
2022/01/11 08:12:52;;;;;;;;;;;;;;;1.59;74.30;97817.78;4184442;28;5723;-66
2022/01/11 08:14:54;;;;;;;;;;;;;;;1.33;75.04;97811.00;4181745;28;5650;-67
2022/01/11 08:16:56;;;;;;;;;;;;;;;1.33;74.88;97819.66;4183602;28;5690;-67
2022/01/11 08:18:57;;;;;;;;;;;;;;;1.44;74.36;97816.28;4175254;28;5768;-66
2022/01/11 08:20:59;;;;;;;;;;;;;;;1.37;73.29;97822.88;4182239;28;5723;-67
2022/01/11 08:23:00;;;;;;;;;;;;;;;1.41;72.99;97819.09;4178037;28;5750;-67
2022/01/11 08:25:05;;;;;;;;;;;;;;;1.25;71.86;97826.38;4161164;28;5767;-67
2022/01/11 08:27:07;;;;;;;;;;;;;;;1.40;72.43;97826.09;4167397;28;6345;-68
2022/01/11 08:29:08;;;;;;;;;;;;;;;1.51;72.85;97827.94;4171007;28;5863;-67
2022/01/11 08:31:10;;;;;;;;;;;;;;;1.54;72.32;97830.31;4183427;28;5726;-67
2022/01/11 08:33:12;;;;;;;;;;;;;;;1.66;71.94;97833.78;4175105;28;5734;-67
2022/01/11 08:35:14;;;;;;;;;;;;;;;1.32;72.01;97835.41;4169298;28;5733;-67
2022/01/11 08:37:16;;;;;;;;;;;;;;;1.43;72.34;97831.06;4183223;28;5158;-65
2022/01/11 08:39:18;;;;;;;;;;;;;;;1.42;72.19;97831.19;4171390;28;5849;-66
2022/01/11 08:41:22;;;;;;;;;;;;;;;1.42;72.87;97828.59;4178607;28;5808;-67
2022/01/11 08:43:23;;;;;;;;;;;;;;;1.44;72.45;97834.50;4177596;28;5737;-67
2022/01/11 08:45:25;;;;;;;;;;;;;;;1.47;72.48;97834.28;4177825;28;5658;-66
2022/01/11 08:47:30;;;;;;;;;;;;;;;1.67;72.29;97838.88;4182482;28;5795;-66
2022/01/11 08:49:32;;;;;;;;;;;;;;;1.78;71.88;97837.25;4167815;28;5698;-66
2022/01/11 08:51:33;;;;;;;;;;;;;;;1.75;71.74;97839.16;4168307;28;5745;-66
2022/01/11 08:53:35;;;;;;;;;;;;;;;1.69;71.89;97826.56;4174573;28;5712;-66
2022/01/11 08:55:38;;;;;;;;;;;;;;;1.65;72.84;97843.38;4171426;28;5649;-67
2022/01/11 08:57:39;;;;;;;;;;;;;;;1.83;72.71;97835.16;4168553;28;5742;-66
2022/01/11 08:59:41;;;;;;;;;;;;;;;1.96;72.36;97841.97;4177993;28;5694;-66
2022/01/11 09:01:43;;;;;;;;;;;;;;;1.84;72.59;97847.25;4172188;28;5896;-67
2022/01/11 09:03:45;;;;;;;;;;;;;;;1.72;73.12;97839.41;4184961;28;5708;-67
2022/01/11 09:05:46;;;;;;;;;;;;;;;1.79;73.39;97846.75;4184776;28;5711;-67
2022/01/11 09:07:49;;;;;;;;;;;;;;;1.75;73.63;97849.59;4184630;28;5881;-67
2022/01/11 09:09:50;;;;;;;;;;;;;;;1.99;72.69;97846.94;4180637;28;5757;-68
2022/01/11 09:11:53;;;;;;;;;;;;;;;1.85;72.72;97854.97;4168133;28;5729;-67
2022/01/11 09:13:54;;;;;;;;;;;;;;;1.98;73.16;97849.66;4173289;28;5730;-67
2022/01/11 09:15:56;;;;;;;;;;;;;;;1.82;72.96;97849.97;4174217;28;5846;-67
2022/01/11 09:17:58;;;;;;;;;;;;;;;1.92;73.16;97850.09;4182814;28;5727;-67
2022/01/11 09:20:00;;;;;;;;;;;;;;;1.98;73.03;97844.44;4176735;28;5738;-67
2022/01/11 09:22:02;;;;;;;;;;;;;;;2.01;73.15;97850.25;4183617;28;5981;-67
2022/01/11 09:24:09;;;;;;;;;;;;;;;2.12;72.66;97848.63;4176041;28;5839;-67
2022/01/11 09:26:10;;;;;;;;;;;;;;;2.18;72.80;97853.41;4168977;28;5737;-67
2022/01/11 09:28:12;;;;;;;;;;;;;;;2.12;72.42;97853.84;4176803;28;5701;-67
2022/01/11 09:30:15;;;;;;;;;;;;;;;2.04;72.82;97863.09;4187195;28;6389;-67
2022/01/11 09:32:17;;;;;;;;;;;;;;;1.98;72.83;97860.94;4185911;28;5651;-67
2022/01/11 09:34:19;;;;;;;;;;;;;;;2.07;72.16;97858.59;4172709;28;5665;-67
2022/01/11 09:36:20;;;;;;;;;;;;;;;1.92;71.96;97856.16;4178115;28;5820;-67
2022/01/11 09:38:23;;;;;;;;;;;;;;;1.74;72.35;97865.34;4184207;28;5779;-67
2022/01/11 09:40:24;;;;;;;;;;;;;;;1.96;72.51;97857.59;4178259;28;5815;-67
2022/01/11 09:42:26;;;;;;;;;;;;;;;1.94;72.47;97866.50;4185438;28;5147;-67
2022/01/11 09:44:28;;;;;;;;;;;;;;;1.88;72.52;97861.72;4171123;28;5746;-67
2022/01/11 09:46:31;;;;;;;;;;;;;;;1.93;72.24;97872.66;4170067;28;5681;-67
2022/01/11 09:48:34;;;;;;;;;;;;;;;2.00;72.62;97873.84;4180803;28;6045;-67
2022/01/11 09:50:36;;;;;;;;;;;;;;;2.12;72.41;97875.56;4172348;28;7112;-67
2022/01/11 09:52:38;;;;;;;;;;;;;;;2.00;72.42;97868.63;4178839;28;5756;-67
2022/01/11 09:54:45;;;;;;;;;;;;;;;2.00;72.48;97869.47;4187363;28;5716;-65
2022/01/11 09:56:47;;;;;;;;;;;;;;;2.03;72.39;97871.00;4187614;28;5871;-68
2022/01/11 09:58:49;;;;;;;;;;;;;;;1.92;72.75;97881.41;4176813;28;5861;-66
2022/01/11 10:00:53;;;;;;;;;;;;;;;1.98;72.47;97868.75;4170799;28;5899;-66
2022/01/11 10:02:55;;;;;;;;;;;;;;;1.95;72.78;97881.19;4179972;28;6862;-66
2022/01/11 10:04:59;;;;;;;;;;;;;;;2.01;72.39;97867.69;4180439;28;5816;-66
2022/01/11 10:07:06;;;;;;;;;;;;;;;1.87;72.03;97873.94;4176199;28;5765;-66
2022/01/11 10:09:10;;;;;;;;;;;;;;;1.84;71.85;97878.53;4185430;28;5646;-67
2022/01/11 10:11:11;;;;;;;;;;;;;;;1.73;71.17;97876.72;4184626;28;5643;-66
2022/01/11 10:13:36;;;;;;;;;;;;;;;1.85;70.97;97875.81;4185018;28;5650;-66
2022/01/11 10:15:40;;;;;;;;;;;;;;;1.91;70.66;97869.31;4184972;28;5743;-66
2022/01/11 10:17:46;;;;;;;;;;;;;;;2.07;71.05;97871.63;4186229;28;5715;-67
2022/01/11 10:19:51;;;;;;;;;;;;;;;1.90;70.52;97868.47;4168555;28;5210;-66
2022/01/11 10:21:56;;;;;;;;;;;;;;;2.10;70.38;97872.22;4184100;28;7750;-66
2022/01/11 10:24:00;;;;;;;;;;;;;;;2.19;69.39;97868.13;4184500;28;5711;-67
2022/01/11 10:26:01;;;;;;;;;;;;;;;2.06;68.19;97869.97;4174850;28;5740;-66
2022/01/11 10:28:05;;;;;;;;;;;;;;;2.12;68.88;97870.34;4181191;28;5723;-66
2022/01/11 10:30:11;;;;;;;;;;;;;;;2.18;69.05;97862.06;4186511;28;6384;-66
2022/01/11 10:32:15;;;;;;;;;;;;;;;2.12;68.25;97862.50;4187282;28;6183;-66
2022/01/11 10:34:28;;;;;;;;;;;;;;;2.03;68.86;97858.81;4186997;28;5727;-66
2022/01/11 10:36:45;;;;;;;;;;;;;;;2.26;69.04;97869.28;4186320;28;5707;-68
2022/01/11 10:38:47;;;;;;;;;;;;;;;2.23;69.13;97859.94;4184272;28;5724;-67
2022/01/11 10:40:49;;;;;;;;;;;;;;;2.28;67.73;97868.25;4183060;28;5771;-67
2022/01/11 10:42:52;;;;;;;;;;;;;;;2.36;68.37;97864.22;4187044;28;5790;-67
2022/01/11 10:45:00;;;;;;;;;;;;;;;2.17;67.93;97865.63;4183013;28;5663;-67
2022/01/11 10:47:03;;;;;;;;;;;;;;;2.25;68.61;97860.63;4184597;28;5765;-67
2022/01/11 10:49:05;;;;;;;;;;;;;;;2.25;68.17;97863.25;4186706;28;5711;-67
2022/01/11 10:51:13;;;;;;;;;;;;;;;2.43;68.10;97849.78;4185149;28;5720;-67
2022/01/11 10:53:15;;;;;;;;;;;;;;;2.43;67.98;97862.81;4186707;28;5741;-67
2022/01/11 10:55:20;;;;;;;;;;;;;;;2.45;67.85;97866.97;4182262;28;5759;-67
2022/01/11 10:57:24;;;;;;;;;;;;;;;2.24;69.00;97865.97;4185386;28;5719;-67
2022/01/11 10:59:25;;;;;;;;;;;;;;;2.33;69.24;97862.69;4182840;28;5654;-67
2022/01/11 11:01:31;;;;;;;;;;;;;;;2.47;68.40;97856.41;4186165;28;5887;-67
2022/01/11 11:03:36;;;;;;;;;;;;;;;2.51;68.06;97865.69;4184395;28;5654;-68
2022/01/11 11:05:54;;;;;;;;;;;;;;;2.59;68.27;97861.53;4160725;28;5661;-67
2022/01/11 11:08:05;;;;;;;;;;;;;;;2.85;67.83;97849.09;4184920;28;5651;-67
2022/01/11 11:10:10;;;;;;;;;;;;;;;2.89;67.70;97857.50;4185087;28;5719;-67
2022/01/11 11:12:13;;;;;;;;;;;;;;;2.89;67.65;97858.34;4182870;28;5650;-67
2022/01/11 11:14:14;;;;;;;;;;;;;;;3.03;67.65;97856.44;4168247;28;5757;-67
2022/01/11 11:16:20;;;;;;;;;;;;;;;2.87;67.51;97855.03;4184584;28;5740;-67
2022/01/11 11:18:33;;;;;;;;;;;;;;;2.86;67.73;97858.59;4183272;28;5735;-67
2022/01/11 11:20:38;;;;;;;;;;;;;;;3.00;68.13;97854.06;4174647;28;5852;-67
2022/01/11 11:22:41;;;;;;;;;;;;;;;3.11;66.90;97854.06;4185531;28;5728;-67
2022/01/11 11:24:43;;;;;;;;;;;;;;;3.15;67.59;97856.28;4186081;28;5898;-67
2022/01/11 11:26:49;;;;;;;;;;;;;;;2.99;67.04;97852.41;4185950;28;5723;-67
2022/01/11 11:28:52;;;;;;;;;;;;;;;3.00;67.11;97851.44;4185251;28;5657;-67
2022/01/11 11:30:54;;;;;;;;;;;;;;;3.05;66.83;97859.75;4185637;28;5723;-67
2022/01/11 11:32:56;;;;;;;;;;;;;;;3.20;66.59;97851.56;4168108;28;5665;-68
2022/01/11 11:34:57;;;;;;;;;;;;;;;2.97;67.12;97859.53;4185716;28;5851;-68
2022/01/11 11:37:05;;;;;;;;;;;;;;;2.92;66.92;97855.47;4185651;28;5724;-68
2022/01/11 11:39:17;;;;;;;;;;;;;;;3.00;66.93;97854.06;4185676;28;5724;-68
2022/01/11 11:41:20;;;;;;;;;;;;;;;2.88;67.43;97850.63;4185575;28;5721;-68
2022/01/11 11:43:22;;;;;;;;;;;;;;;2.88;67.76;97843.63;4185495;28;5716;-68
2022/01/11 11:45:27;;;;;;;;;;;;;;;3.11;67.08;97851.44;4185225;28;5700;-68
2022/01/11 11:47:35;;;;;;;;;;;;;;;2.92;67.86;97852.03;4185791;28;5716;-67
2022/01/11 11:49:50;;;;;;;;;;;;;;;3.18;67.46;97847.41;4185233;28;5724;-68
2022/01/11 11:51:52;;;;;;;;;;;;;;;3.29;67.32;97849.16;4182277;28;5642;-67
2022/01/11 11:53:53;;;;;;;;;;;;;;;3.35;67.41;97833.81;4185993;28;5731;-68
2022/01/11 11:56:21;;;;;;;;;;;;;;;3.11;67.33;97851.44;4185257;28;5821;-68
2022/01/11 11:58:23;;;;;;;;;;;;;;;2.98;67.56;97845.53;4185522;28;5891;-68
2022/01/11 12:00:31;;;;;;;;;;;;;;;3.01;68.13;97847.88;4185974;28;6495;-67
2022/01/11 12:02:33;;;;;;;;;;;;;;;3.13;67.63;97854.75;4185183;28;5775;-68
2022/01/11 12:04:34;;;;;;;;;;;;;;;3.17;67.46;97843.09;4185382;28;5720;-68
2022/01/11 12:06:36;;;;;;;;;;;;;;;3.31;67.64;97837.63;4185106;28;5840;-68
2022/01/11 12:08:42;;;;;;;;;;;;;;;3.17;67.62;97845.72;4184300;28;5677;-67
2022/01/11 12:10:56;;;;;;;;;;;;;;;3.16;67.83;97844.88;4185298;28;5720;-68
2022/01/11 12:12:57;;;;;;;;;;;;;;;3.09;68.13;97837.66;4184013;28;5658;-67
2022/01/11 12:14:59;;;;;;;;;;;;;;;3.24;67.92;97840.84;4183746;28;5750;-68
2022/01/11 12:17:17;;;;;;;;;;;;;;;3.16;67.25;97823.97;4185607;28;5703;-67
2022/01/11 12:19:41;;;;;;;;;;;;;;;3.04;67.93;97843.25;4185318;28;5715;-66
2022/01/11 12:22:05;;;;;;;;;;;;;;;2.98;68.32;97835.06;4183915;28;5706;-67
2022/01/11 12:24:07;;;;;;;;;;;;;;;3.11;67.82;97838.38;4183243;28;5658;-67
2022/01/11 12:26:19;;;;;;;;;;;;;;;3.16;67.03;97841.44;4184954;28;5969;-67
2022/01/11 12:28:23;;;;;;;;;;;;;;;3.05;67.53;97831.00;4181023;28;6995;-67
2022/01/11 12:30:26;;;;;;;;;;;;;;;2.78;67.68;97839.22;4182957;28;5879;-67
2022/01/11 12:32:31;;;;;;;;;;;;;;;2.87;68.23;97839.34;4180854;28;5860;-67
2022/01/11 12:34:45;;;;;;;;;;;;;;;2.88;68.58;97837.56;4183734;28;5725;-67
2022/01/11 12:36:54;;;;;;;;;;;;;;;3.00;68.29;97838.38;4182359;28;5669;-67
2022/01/11 12:39:02;;;;;;;;;;;;;;;2.94;67.95;97831.84;4183518;28;5846;-67
2022/01/11 12:41:39;;;;;;;;;;;;;;;3.16;67.76;97844.06;4184609;28;5839;-67
2022/01/11 12:43:43;;;;;;;;;;;;;;;3.23;67.39;97842.63;4165124;28;5712;-67
2022/01/11 12:46:10;;;;;;;;;;;;;;;3.17;67.36;97840.50;4149635;28;5123;-67
2022/01/11 12:48:12;;;;;;;;;;;;;;;3.33;67.54;97840.94;4165882;28;5792;-67
2022/01/11 12:50:17;;;;;;;;;;;;;;;3.44;66.93;97842.72;4165061;28;5764;-67
2022/01/11 12:52:25;;;;;;;;;;;;;;;3.47;66.06;97832.00;4166500;28;5692;-67
2022/01/11 12:54:28;;;;;;;;;;;;;;;3.49;66.53;97846.59;4161796;28;5712;-69
2022/01/11 12:56:30;;;;;;;;;;;;;;;3.41;66.18;97838.56;4163937;28;5696;-72
2022/01/11 12:58:32;;;;;;;;;;;;;;;3.38;66.71;97827.50;4165887;28;5804;-71
2022/01/11 13:00:33;;;;;;;;;;;;;;;3.32;66.63;97834.06;4159532;28;5875;-67
2022/01/11 13:02:36;;;;;;;;;;;;;;;3.36;66.71;97840.69;4158746;28;5805;-67
2022/01/11 13:04:49;;;;;;;;;;;;;;;3.27;67.25;97836.19;4159448;28;5689;-67
2022/01/11 13:06:51;;;;;;;;;;;;;;;3.45;67.08;97834.75;4157859;28;5712;-67
2022/01/11 13:09:02;;;;;;;;;;;;;;;3.37;66.71;97839.75;4151993;28;5720;-68
2022/01/11 13:11:14;;;;;;;;;;;;;;;3.41;66.42;97829.91;4152996;28;5784;-67
2022/01/11 13:13:24;;;;;;;;;;;;;;;3.37;67.11;97831.06;4169868;28;5701;-68
2022/01/11 13:15:48;;;;;;;;;;;;;;;3.45;67.01;97834.75;4153438;28;5699;-68
2022/01/11 13:17:58;;;;;;;;;;;;;;;3.65;66.74;97837.53;4177270;28;5830;-68
2022/01/11 13:20:22;;;;;;;;;;;;;;;3.68;66.33;97839.91;4172493;28;5646;-68
2022/01/11 13:22:26;;;;;;;;;;;;;;;3.64;66.15;97828.88;4171510;28;5734;-67
2022/01/11 13:24:34;;;;;;;;;;;;;;;3.59;66.45;97832.78;4184595;28;5682;-68
2022/01/11 13:26:35;;;;;;;;;;;;;;;3.71;65.96;97830.00;4186629;28;6310;-67
2022/01/11 13:28:44;;;;;;;;;;;;;;;3.76;65.63;97829.66;4186587;28;5740;-68
2022/01/11 13:30:49;;;;;;;;;;;;;;;3.81;65.51;97824.84;4187271;28;5855;-68
2022/01/11 13:32:50;;;;;;;;;;;;;;;3.76;66.10;97821.81;4186623;28;5727;-68
2022/01/11 13:34:53;;;;;;;;;;;;;;;3.86;65.57;97829.72;4185416;28;5706;-68
2022/01/11 13:36:56;;;;;;;;;;;;;;;3.71;65.56;97810.88;4186073;28;5767;-68
2022/01/11 13:39:05;;;;;;;;;;;;;;;3.80;66.19;97820.59;4187268;28;5735;-68
2022/01/11 13:41:09;;;;;;;;;;;;;;;3.88;65.99;97819.97;4187430;28;5836;-68
2022/01/11 13:43:55;;;;;;;;;;;;;;;3.63;65.92;97824.59;4187608;28;5747;-67
2022/01/11 13:45:57;;;;;;;;;;;;;;;3.65;66.44;97821.84;4171185;28;5733;-67
2022/01/11 13:48:11;;;;;;;;;;;;;;;3.71;66.33;97823.94;4172325;28;5654;-68
2022/01/11 13:50:12;;;;;;;;;;;;;;;3.74;65.92;97821.09;4185053;28;5748;-68
2022/01/11 13:52:16;;;;;;;;;;;;;;;3.79;66.10;97826.78;4187598;28;5787;-68
2022/01/11 13:54:19;;;;;;;;;;;;;;;3.50;66.41;97818.66;4183349;28;5719;-68
2022/01/11 13:56:21;;;;;;;;;;;;;;;3.69;66.08;97826.69;4186427;28;5827;-67
2022/01/11 13:58:23;;;;;;;;;;;;;;;3.72;66.08;97818.59;4187141;28;5708;-68
2022/01/11 14:00:24;;;;;;;;;;;;;;;3.62;66.02;97817.66;4186010;28;5866;-68
2022/01/11 14:02:29;;;;;;;;;;;;;;;3.60;65.75;97824.81;4187480;28;5716;-68
2022/01/11 14:04:41;;;;;;;;;;;;;;;3.56;66.03;97820.81;4185560;28;5731;-68
2022/01/11 14:06:53;;;;;;;;;;;;;;;3.68;66.09;97817.19;4185106;28;5665;-67
2022/01/11 14:08:55;;;;;;;;;;;;;;;3.61;66.10;97821.25;4170762;28;6624;-68
2022/01/11 14:11:08;;;;;;;;;;;;;;;3.61;66.35;97821.25;4178175;28;5084;-68
2022/01/11 14:13:16;;;;;;;;;;;;;;;3.69;66.51;97821.47;4170098;28;5669;-67
2022/01/11 14:15:20;;;;;;;;;;;;;;;3.73;66.43;97827.25;4185147;28;5723;-68
2022/01/11 14:17:24;;;;;;;;;;;;;;;3.71;66.71;97819.53;4181502;28;5831;-67
2022/01/11 14:19:26;;;;;;;;;;;;;;;3.73;66.10;97829.88;4187293;28;5704;-68
2022/01/11 14:21:28;;;;;;;;;;;;;;;3.56;66.89;97819.97;4184658;28;5831;-67
2022/01/11 14:23:32;;;;;;;;;;;;;;;3.68;66.58;97832.06;4185660;28;5634;-67
2022/01/11 14:25:39;;;;;;;;;;;;;;;3.53;67.04;97823.69;4185100;28;5857;-68
2022/01/11 14:27:40;;;;;;;;;;;;;;;3.41;67.58;97817.66;4184306;28;5674;-68
2022/01/11 14:29:53;;;;;;;;;;;;;;;3.31;67.72;97827.19;4185426;28;5850;-67
2022/01/11 14:32:07;;;;;;;;;;;;;;;3.37;67.62;97831.91;4166877;28;6078;-67
2022/01/11 14:34:12;;;;;;;;;;;;;;;3.26;67.33;97829.31;4182518;28;5717;-67
2022/01/11 14:36:20;;;;;;;;;;;;;;;3.29;67.70;97829.09;4186061;28;5732;-67
2022/01/11 14:38:36;;;;;;;;;;;;;;;3.33;67.79;97827.06;4184634;28;5748;-67
2022/01/11 14:40:43;;;;;;;;;;;;;;;3.31;67.46;97827.19;4184928;28;5670;-67
2022/01/11 14:42:44;;;;;;;;;;;;;;;3.36;67.51;97824.19;4183970;28;5818;-67
2022/01/11 14:44:57;;;;;;;;;;;;;;;3.38;67.73;97828.34;4181598;28;5638;-67
2022/01/11 14:47:02;;;;;;;;;;;;;;;3.48;67.64;97834.47;4179239;28;5754;-67
2022/01/11 14:49:08;;;;;;;;;;;;;;;3.19;67.99;97836.00;4183243;28;5646;-67
2022/01/11 14:51:21;;;;;;;;;;;;;;;3.08;68.59;97838.63;4178518;28;6377;-67
2022/01/11 14:53:34;;;;;;;;;;;;;;;3.15;68.52;97826.72;4185107;28;5667;-67
2022/01/11 14:55:47;;;;;;;;;;;;;;;3.27;67.88;97825.75;4185708;28;5650;-67
2022/01/11 14:57:59;;;;;;;;;;;;;;;3.35;67.87;97836.44;4186481;28;5708;-67
2022/01/11 15:00:01;;;;;;;;;;;;;;;3.40;67.45;97830.84;4186657;28;5732;-67
2022/01/11 15:02:10;;;;;;;;;;;;;;;3.34;67.77;97833.94;4186731;28;5716;-67
2022/01/11 15:04:15;;;;;;;;;;;;;;;3.07;68.81;97832.56;4185120;28;5692;-67
2022/01/11 15:06:23;;;;;;;;;;;;;;;3.07;69.00;97839.59;4185053;28;6481;-67
2022/01/11 15:08:29;;;;;;;;;;;;;;;3.15;68.33;97845.84;4186261;28;6552;-67
2022/01/11 15:10:34;;;;;;;;;;;;;;;3.21;68.39;97844.53;4186785;28;5827;-67
2022/01/11 15:12:40;;;;;;;;;;;;;;;3.00;68.86;97849.66;4185118;28;5638;-67
2022/01/11 15:14:42;;;;;;;;;;;;;;;3.14;68.60;97846.78;4185076;28;5755;-67
2022/01/11 15:16:45;;;;;;;;;;;;;;;3.20;68.56;97846.31;4179551;28;5740;-67
2022/01/11 15:18:48;;;;;;;;;;;;;;;3.09;68.96;97848.13;4160702;28;5677;-67
2022/01/11 15:20:50;;;;;;;;;;;;;;;3.06;68.86;97848.34;4183440;28;5849;-67
2022/01/11 15:22:51;;;;;;;;;;;;;;;2.75;69.61;97853.38;4184855;28;5708;-67
2022/01/11 15:24:53;;;;;;;;;;;;;;;2.82;69.85;97851.09;4182391;28;5727;-67
2022/01/11 15:27:00;;;;;;;;;;;;;;;2.76;69.91;97851.59;4185822;28;5711;-66
2022/01/11 15:29:30;;;;;;;;;;;;;;;2.68;70.05;97841.72;4164929;28;5840;-66
2022/01/11 15:31:32;;;;;;;;;;;;;;;2.78;69.91;97839.22;4175630;28;5755;-66
2022/01/11 15:33:34;;;;;;;;;;;;;;;2.71;69.76;97849.31;4183769;28;5650;-67
2022/01/11 15:35:35;;;;;;;;;;;;;;;2.88;69.21;97835.78;4186403;28;5782;-67
2022/01/11 15:37:37;;;;;;;;;;;;;;;2.72;69.94;97850.13;4174496;28;5670;-67
2022/01/11 15:39:39;;;;;;;;;;;;;;;2.87;69.01;97844.56;4169324;28;5820;-67
2022/01/11 15:41:42;;;;;;;;;;;;;;;2.93;68.93;97844.06;4152284;28;5671;-67
2022/01/11 15:43:45;;;;;;;;;;;;;;;2.90;68.64;97853.94;4169236;28;5741;-67
2022/01/11 15:45:47;;;;;;;;;;;;;;;2.87;68.85;97843.75;4179725;28;5658;-67
2022/01/11 15:47:49;;;;;;;;;;;;;;;2.74;68.85;97836.03;4177280;28;6541;-66
2022/01/11 15:49:50;;;;;;;;;;;;;;;2.49;69.58;97850.16;4182004;28;5922;-66
2022/01/11 15:51:54;;;;;;;;;;;;;;;2.56;69.67;97855.72;4181526;28;5818;-66
2022/01/11 15:54:04;;;;;;;;;;;;;;;2.59;69.48;97855.47;4175874;28;5787;-66
2022/01/11 15:56:06;;;;;;;;;;;;;;;2.68;69.03;97843.50;4176373;28;5885;-66